Terminal Aerodrome Forecast
Issued by NWS

Home | Current Version | Previous Version | Text Only | Print | Product List | Glossary On
Versions: 1 2 3 4 5 6 7 8 9 10 11 12 13 14
000
FTUS45 KSLC 171422 AAA
TAFBCE
TAF AMD
KBCE 171422Z 1714/1812 31008KT P6SM BKN009 BKN080
     FM171700 03008KT P6SM SCT030 BKN120
     FM180200 31008KT P6SM SCT080 BKN150=

USA.gov is the U.S. government's official web portal to all federal, state and local government web resources and services.